createdAt,value
2018-07-24T00:00:08.453Z,75.86
2018-07-24T00:02:37.820Z,76.00
2018-07-24T00:05:07.251Z,76.21
2018-07-24T00:07:36.626Z,76.38
2018-07-24T00:10:07.624Z,76.25
2018-07-24T00:12:38.672Z,76.38
2018-07-24T00:15:09.192Z,76.03
2018-07-24T00:17:39.339Z,75.82
2018-07-24T00:20:09.434Z,75.98
2018-07-24T00:22:38.918Z,76.22
2018-07-24T00:25:08.300Z,76.40
2018-07-24T00:27:38.167Z,76.27
2018-07-24T00:30:07.702Z,76.42
2018-07-24T00:32:37.152Z,76.00
2018-07-24T00:35:08.119Z,76.38
2018-07-24T00:37:37.573Z,76.26
2018-07-24T00:40:07.025Z,75.88
2018-07-24T00:42:36.747Z,76.12
2018-07-24T00:45:06.285Z,76.44
2018-07-24T00:47:35.776Z,76.33
2018-07-24T00:50:05.549Z,76.37
2018-07-24T00:52:34.834Z,76.20
2018-07-24T00:55:04.293Z,76.30
2018-07-24T00:57:34.088Z,76.08
2018-07-24T01:00:03.558Z,76.23
2018-07-24T01:02:33.160Z,76.42
2018-07-24T01:05:02.936Z,76.23
2018-07-24T01:07:35.528Z,76.52
2018-07-24T01:10:05.244Z,75.76
2018-07-24T01:12:34.717Z,76.40
2018-07-24T01:15:04.226Z,76.02
2018-07-24T01:17:33.700Z,76.10
2018-07-24T01:20:03.153Z,76.28
2018-07-24T01:22:32.593Z,76.49
2018-07-24T01:25:01.970Z,76.75
2018-07-24T01:27:31.251Z,76.69
2018-07-24T01:30:00.603Z,76.33
2018-07-24T01:32:30.246Z,76.53
2018-07-24T01:34:59.687Z,76.02
2018-07-24T01:37:29.114Z,75.69
2018-07-24T01:39:58.619Z,75.99
2018-07-24T01:42:27.941Z,75.99
2018-07-24T01:44:57.400Z,76.06
2018-07-24T01:47:27.180Z,76.09
2018-07-24T01:49:56.452Z,75.93
2018-07-24T01:52:25.886Z,75.91
2018-07-24T01:54:55.353Z,76.45
2018-07-24T01:57:24.652Z,76.19
2018-07-24T01:59:54.164Z,76.47
2018-07-24T02:02:24.074Z,75.66
2018-07-24T02:04:53.491Z,75.88
2018-07-24T02:07:22.997Z,76.02
2018-07-24T02:09:52.831Z,75.50
2018-07-24T02:12:22.253Z,75.81
2018-07-24T02:14:51.777Z,76.32
2018-07-24T02:17:21.564Z,76.47
2018-07-24T02:19:50.905Z,76.39
2018-07-24T02:22:20.223Z,76.25
2018-07-24T02:24:49.877Z,76.39
2018-07-24T02:27:19.476Z,76.26
2018-07-24T02:29:49.265Z,76.12
2018-07-24T02:32:18.974Z,76.60
2018-07-24T02:34:48.897Z,75.92
2018-07-24T02:37:18.262Z,76.21
2018-07-24T02:39:48.130Z,76.29
2018-07-24T02:42:17.474Z,76.16
2018-07-24T02:44:47.151Z,76.38
2018-07-24T02:47:16.820Z,76.40
2018-07-24T02:49:46.161Z,76.33
2018-07-24T02:52:15.590Z,76.19
2018-07-24T02:54:46.112Z,76.07
2018-07-24T02:57:15.478Z,76.66
2018-07-24T02:59:44.828Z,76.46
2018-07-24T03:02:14.534Z,76.50
2018-07-24T03:04:44.023Z,75.91
2018-07-24T03:07:13.320Z,75.95
2018-07-24T03:09:43.050Z,75.84
2018-07-24T03:12:12.717Z,76.03
2018-07-24T03:14:42.170Z,76.10
2018-07-24T03:17:11.800Z,75.80
2018-07-24T03:19:41.130Z,76.14
2018-07-24T03:22:10.640Z,76.22
2018-07-24T03:24:40.147Z,76.14
2018-07-24T03:27:09.550Z,76.17
2018-07-24T03:29:39.061Z,76.37
2018-07-24T03:32:09.090Z,75.88
2018-07-24T03:34:38.945Z,75.74
2018-07-24T03:37:08.727Z,75.74
2018-07-24T03:39:38.109Z,75.32
2018-07-24T03:42:08.261Z,74.75
2018-07-24T03:44:38.478Z,74.90
2018-07-24T03:47:07.992Z,74.82
2018-07-24T03:49:37.407Z,75.08
2018-07-24T03:52:07.077Z,74.84
2018-07-24T03:54:36.639Z,75.26
2018-07-24T03:57:06.076Z,75.25
2018-07-24T03:59:35.956Z,75.18
2018-07-24T04:02:05.339Z,74.93
2018-07-24T04:04:34.864Z,75.12
2018-07-24T04:07:04.668Z,75.10
2018-07-24T04:09:34.149Z,75.10
2018-07-24T04:12:03.484Z,75.38
2018-07-24T04:14:33.021Z,75.31
2018-07-24T04:17:02.549Z,75.46
2018-07-24T04:19:31.859Z,75.52
2018-07-24T04:22:01.621Z,75.68
2018-07-24T04:24:31.358Z,74.89
2018-07-24T04:27:01.160Z,75.12
2018-07-24T04:29:31.131Z,75.43
2018-07-24T04:32:00.621Z,74.98
2018-07-24T04:34:32.688Z,74.97
2018-07-24T04:37:07.645Z,75.41
2018-07-24T04:39:37.757Z,75.38
2018-07-24T04:42:07.211Z,75.37
2018-07-24T04:44:37.130Z,75.71
2018-07-24T04:47:07.554Z,75.67
2018-07-24T04:49:37.460Z,75.18
2018-07-24T04:52:08.342Z,75.38
2018-07-24T04:54:43.372Z,75.46
2018-07-24T04:57:13.148Z,75.75
2018-07-24T04:59:43.287Z,75.19
2018-07-24T05:02:12.893Z,74.27
2018-07-24T05:04:42.416Z,74.15
2018-07-24T05:07:12.176Z,74.56
2018-07-24T05:09:43.728Z,74.65
2018-07-24T05:12:15.643Z,75.29
2018-07-24T05:14:45.828Z,75.17
2018-07-24T05:17:15.944Z,74.93
2018-07-24T05:19:46.237Z,75.24
2018-07-24T05:22:16.072Z,75.09
2018-07-24T05:24:45.811Z,75.44
2018-07-24T05:27:15.965Z,75.56
2018-07-24T05:29:45.793Z,75.35
2018-07-24T05:32:15.377Z,75.42
2018-07-24T05:34:45.320Z,75.48
2018-07-24T05:37:14.890Z,75.25
2018-07-24T05:39:44.698Z,75.18
2018-07-24T05:42:15.200Z,75.25
2018-07-24T05:44:44.663Z,75.34
2018-07-24T05:47:14.347Z,75.23
2018-07-24T05:49:43.981Z,74.88
2018-07-24T05:52:13.782Z,74.81
2018-07-24T05:54:44.062Z,74.75
2018-07-24T05:57:13.662Z,74.93
2018-07-24T05:59:43.528Z,74.73
2018-07-24T06:02:13.486Z,74.74
2018-07-24T06:04:43.094Z,74.59
2018-07-24T06:07:12.974Z,74.06
2018-07-24T06:09:43.107Z,74.52
2018-07-24T06:12:13.208Z,74.23
2018-07-24T06:14:42.826Z,73.99
2018-07-24T06:17:12.416Z,73.72
2018-07-24T06:19:41.988Z,73.58
2018-07-24T06:22:12.040Z,73.68
2018-07-24T06:24:41.845Z,73.54
2018-07-24T06:27:12.428Z,73.47
2018-07-24T06:29:42.108Z,72.76
2018-07-24T06:32:11.864Z,72.84
2018-07-24T06:34:41.841Z,72.75
2018-07-24T06:37:11.546Z,72.64
2018-07-24T06:39:41.523Z,72.21
2018-07-24T06:42:11.559Z,71.91
2018-07-24T06:44:41.330Z,71.62
2018-07-24T06:47:11.144Z,71.33
2018-07-24T06:49:41.339Z,70.54
2018-07-24T06:52:11.244Z,70.41
2018-07-24T06:54:41.110Z,70.65
2018-07-24T06:57:12.015Z,70.02
2018-07-24T06:59:41.912Z,69.75
2018-07-24T07:02:11.534Z,70.16
2018-07-24T07:04:41.265Z,69.39
2018-07-24T07:07:11.102Z,69.15
2018-07-24T07:09:41.601Z,69.06
2018-07-24T07:12:11.548Z,69.37
2018-07-24T07:14:41.151Z,69.22
2018-07-24T07:17:11.134Z,69.38
2018-07-24T07:19:41.174Z,69.28
2018-07-24T07:22:10.830Z,69.60
2018-07-24T07:24:40.651Z,69.42
2018-07-24T07:27:10.557Z,68.63
2018-07-24T07:29:40.125Z,68.53
2018-07-24T07:32:09.925Z,68.85
2018-07-24T07:34:39.396Z,69.02
2018-07-24T07:37:09.142Z,68.22
2018-07-24T07:39:38.935Z,68.52
2018-07-24T07:42:08.719Z,68.50
2018-07-24T07:44:38.314Z,68.26
2018-07-24T07:47:07.744Z,68.38
2018-07-24T07:49:37.570Z,68.10
2018-07-24T07:52:07.146Z,67.96
2018-07-24T07:54:37.028Z,67.33
2018-07-24T07:57:07.380Z,66.85
2018-07-24T07:59:36.990Z,66.48
2018-07-24T08:02:06.836Z,65.77
2018-07-24T08:04:37.692Z,65.47
2018-07-24T08:07:07.505Z,65.14
2018-07-24T08:09:37.294Z,65.13
2018-07-24T08:12:06.772Z,65.55
2018-07-24T08:14:36.796Z,64.65
2018-07-24T08:17:06.324Z,64.58
2018-07-24T08:19:36.165Z,64.30
2018-07-24T08:22:05.769Z,64.56
2018-07-24T08:24:35.265Z,64.32
2018-07-24T08:27:05.486Z,64.13
2018-07-24T08:29:35.097Z,64.52
2018-07-24T08:32:04.667Z,64.09
2018-07-24T08:34:35.059Z,64.39
2018-07-24T08:37:05.353Z,64.08
2018-07-24T08:39:36.168Z,63.45
2018-07-24T08:42:05.666Z,63.11
2018-07-24T08:44:35.655Z,62.08
2018-07-24T08:47:06.320Z,62.65
2018-07-24T08:49:36.194Z,61.69
2018-07-24T08:52:05.781Z,60.67
2018-07-24T08:54:35.695Z,60.79
2018-07-24T08:57:05.058Z,60.13
2018-07-24T08:59:34.602Z,59.55
2018-07-24T09:02:04.515Z,59.67
2018-07-24T09:04:36.248Z,60.47
2018-07-24T09:07:08.204Z,60.24
2018-07-24T09:09:38.253Z,59.90
2018-07-24T09:12:08.052Z,60.82
2018-07-24T09:14:37.564Z,61.08
2018-07-24T09:17:07.297Z,60.92
2018-07-24T09:19:36.935Z,59.51
2018-07-24T09:22:07.427Z,58.97
2018-07-24T09:24:38.567Z,59.41
2018-07-24T09:27:09.371Z,58.75
2018-07-24T09:29:39.351Z,58.19
2018-07-24T09:32:09.190Z,57.14
2018-07-24T09:34:39.260Z,57.35
2018-07-24T09:37:08.580Z,57.63
2018-07-24T09:39:38.198Z,58.54
2018-07-24T09:42:08.460Z,59.19
2018-07-24T09:44:38.173Z,57.19
2018-07-24T09:47:08.107Z,57.45
2018-07-24T09:49:38.103Z,57.64
2018-07-24T09:52:07.611Z,57.19
2018-07-24T09:54:37.337Z,56.82
2018-07-24T09:57:07.306Z,56.54
2018-07-24T09:59:36.733Z,56.37
2018-07-24T10:02:06.365Z,56.04
2018-07-24T10:04:36.404Z,56.51
2018-07-24T10:07:07.777Z,55.33
2018-07-24T10:09:37.798Z,55.60
2018-07-24T10:12:07.993Z,57.01
2018-07-24T10:14:37.657Z,56.99
2018-07-24T10:17:07.718Z,58.09
2018-07-24T10:19:37.229Z,56.32
2018-07-24T10:22:08.011Z,55.33
2018-07-24T10:24:37.628Z,57.20
2018-07-24T10:27:07.242Z,58.07
2018-07-24T10:29:37.312Z,56.82
2018-07-24T10:32:06.899Z,57.17
2018-07-24T10:34:37.240Z,54.39
2018-07-24T10:37:07.495Z,54.34
2018-07-24T10:39:37.379Z,56.23
2018-07-24T10:42:07.088Z,53.25
2018-07-24T10:44:36.887Z,52.71
2018-07-24T10:47:06.490Z,53.96
2018-07-24T10:49:36.194Z,52.45
2018-07-24T10:52:05.748Z,52.93
2018-07-24T10:54:35.411Z,51.76
2018-07-24T10:57:04.976Z,49.75
2018-07-24T10:59:35.289Z,52.40
2018-07-24T11:02:04.732Z,51.46
2018-07-24T11:04:34.230Z,48.27
2018-07-24T11:07:04.170Z,49.24
2018-07-24T11:09:33.606Z,49.71
2018-07-24T11:12:03.016Z,49.12
2018-07-24T11:14:33.030Z,50.49
2018-07-24T11:17:02.557Z,50.62
2018-07-24T11:19:32.221Z,50.17
2018-07-24T11:22:02.490Z,49.48
2018-07-24T11:24:31.863Z,49.79
2018-07-24T11:27:01.455Z,49.66
2018-07-24T11:29:31.293Z,51.63
2018-07-24T11:32:01.172Z,50.67
2018-07-24T11:34:30.675Z,48.45
2018-07-24T11:37:00.721Z,48.84
2018-07-24T11:39:30.226Z,46.01
2018-07-24T11:41:59.891Z,45.88
2018-07-24T11:44:31.635Z,46.07
2018-07-24T11:47:01.814Z,46.06
2018-07-24T11:49:32.929Z,45.39
2018-07-24T11:52:03.846Z,44.98
2018-07-24T11:54:34.266Z,45.94
2018-07-24T11:57:03.978Z,44.95
2018-07-24T11:59:33.433Z,45.38
2018-07-24T12:02:03.281Z,44.84
2018-07-24T12:04:33.074Z,41.68
2018-07-24T12:07:03.173Z,40.97
2018-07-24T12:09:33.202Z,44.62
2018-07-24T12:12:03.119Z,42.48
2018-07-24T12:14:32.909Z,44.08
2018-07-24T12:17:03.431Z,45.79
2018-07-24T12:19:33.159Z,46.51
2018-07-24T12:22:03.367Z,45.31
2018-07-24T12:24:33.105Z,45.63
2018-07-24T12:27:02.916Z,45.89
2018-07-24T12:29:32.541Z,46.04
2018-07-24T12:32:02.812Z,46.22
2018-07-24T12:34:32.357Z,47.14
2018-07-24T12:37:02.292Z,48.10
2018-07-24T12:39:33.768Z,48.63
2018-07-24T12:42:05.024Z,49.64
2018-07-24T12:44:35.230Z,48.62
2018-07-24T12:47:05.003Z,49.10
2018-07-24T12:49:34.731Z,50.47
2018-07-24T12:52:04.705Z,51.81
2018-07-24T12:54:34.468Z,52.40
2018-07-24T12:57:03.915Z,52.31
2018-07-24T12:59:34.901Z,54.83
2018-07-24T13:02:04.751Z,53.65
2018-07-24T13:04:34.939Z,55.16
2018-07-24T13:07:05.858Z,56.31
2018-07-24T13:09:35.293Z,57.44
2018-07-24T13:12:04.801Z,59.92
2018-07-24T13:14:34.760Z,63.12
2018-07-24T13:17:04.341Z,64.58
2018-07-24T13:19:34.336Z,64.54
2018-07-24T13:22:04.128Z,66.95
2018-07-24T13:24:33.894Z,66.57
2018-07-24T13:27:03.380Z,67.22
2018-07-24T13:29:33.585Z,68.92
2018-07-24T13:32:03.375Z,68.20
2018-07-24T13:34:32.913Z,66.36
2018-07-24T13:37:02.906Z,66.33
2018-07-24T13:39:32.415Z,66.06
2018-07-24T13:42:02.001Z,67.74
2018-07-24T13:44:32.268Z,68.51
2018-07-24T13:47:01.940Z,68.34
2018-07-24T13:49:31.477Z,68.02
2018-07-24T13:52:01.335Z,68.60
2018-07-24T13:54:31.217Z,70.25
2018-07-24T13:57:00.815Z,70.48
2018-07-24T13:59:30.447Z,70.01
2018-07-24T14:02:00.097Z,68.61
2018-07-24T14:04:32.358Z,69.25
2018-07-24T14:07:01.964Z,67.45
2018-07-24T14:09:31.497Z,66.11
2018-07-24T14:12:01.427Z,66.38
2018-07-24T14:14:31.429Z,64.01
2018-07-24T14:17:00.950Z,65.78
2018-07-24T14:19:32.696Z,66.71
2018-07-24T14:22:02.790Z,64.18
2018-07-24T14:24:34.225Z,63.31
2018-07-24T14:27:04.097Z,62.12
2018-07-24T14:29:33.973Z,61.39
2018-07-24T14:32:04.055Z,61.11
2018-07-24T14:34:34.261Z,60.42
2018-07-24T14:37:04.216Z,60.41
2018-07-24T14:39:35.072Z,54.69
2018-07-24T14:42:04.571Z,55.58
2018-07-24T14:44:34.565Z,55.48
2018-07-24T14:47:06.043Z,55.28
2018-07-24T14:49:36.003Z,55.07
2018-07-24T14:52:06.388Z,57.46
2018-07-24T14:54:36.855Z,57.44
2018-07-24T14:57:08.169Z,57.21
2018-07-24T14:59:38.224Z,57.68
2018-07-24T15:02:08.566Z,58.90
2018-07-24T15:04:39.589Z,59.59
2018-07-24T15:07:09.103Z,61.08
2018-07-24T15:09:40.391Z,60.64
2018-07-24T15:12:11.384Z,61.07
2018-07-24T15:14:44.939Z,58.76
2018-07-24T15:17:14.925Z,59.80
2018-07-24T15:19:44.788Z,59.93
2018-07-24T15:22:14.375Z,60.99
2018-07-24T15:24:44.970Z,61.58
2018-07-24T15:27:14.514Z,61.92
2018-07-24T15:29:44.486Z,63.06
2018-07-24T15:32:15.587Z,63.89
2018-07-24T15:34:45.327Z,64.53
2018-07-24T15:37:15.498Z,64.25
2018-07-24T15:39:44.955Z,64.33
2018-07-24T15:42:15.300Z,65.19
2018-07-24T15:44:45.232Z,65.47
2018-07-24T15:47:15.828Z,65.14
2018-07-24T15:49:47.965Z,65.65
2018-07-24T15:52:17.551Z,65.73
2018-07-24T15:54:47.824Z,66.19
2018-07-24T15:57:18.693Z,66.20
2018-07-24T15:59:51.310Z,66.40
2018-07-24T16:02:21.536Z,65.50
2018-07-24T16:04:52.090Z,65.95
2018-07-24T16:07:22.779Z,65.44
2018-07-24T16:09:52.683Z,65.54
2018-07-24T16:12:22.384Z,66.09
2018-07-24T16:14:51.868Z,66.01
2018-07-24T16:17:21.881Z,66.16
2018-07-24T16:19:53.580Z,65.95
2018-07-24T16:22:29.701Z,66.85
2018-07-24T16:25:00.059Z,66.31
2018-07-24T16:27:29.561Z,66.14
2018-07-24T16:29:59.501Z,66.23
2018-07-24T16:32:28.985Z,66.22
2018-07-24T16:35:00.014Z,65.71
2018-07-24T16:37:29.710Z,65.81
2018-07-24T16:39:59.391Z,66.07
2018-07-24T16:42:29.113Z,66.31
2018-07-24T16:44:58.718Z,66.38
2018-07-24T16:47:32.059Z,66.22
2018-07-24T16:52:40.308Z,65.60
2018-07-24T16:55:10.268Z,65.32
2018-07-24T16:57:39.696Z,65.92
2018-07-24T17:00:09.274Z,65.48
2018-07-24T17:02:39.174Z,66.03
2018-07-24T17:05:08.883Z,66.21
2018-07-24T17:07:38.776Z,65.95
2018-07-24T17:10:08.814Z,65.85
2018-07-24T17:12:38.553Z,66.03
2018-07-24T17:15:08.729Z,66.48
2018-07-24T17:17:38.594Z,66.13
2018-07-24T17:20:08.169Z,66.17
2018-07-24T17:22:38.159Z,66.09
2018-07-24T17:25:08.441Z,66.11
2018-07-24T17:27:38.083Z,66.48
2018-07-24T17:30:07.749Z,66.63
2018-07-24T17:32:37.913Z,66.66
2018-07-24T17:35:07.498Z,66.44
2018-07-24T17:37:36.903Z,66.58
2018-07-24T17:40:07.232Z,66.51
2018-07-24T17:42:36.898Z,66.80
2018-07-24T17:45:07.124Z,66.78
2018-07-24T17:47:36.996Z,66.65
2018-07-24T17:50:06.628Z,67.08
2018-07-24T17:52:36.259Z,67.36
2018-07-24T17:55:06.210Z,66.93
2018-07-24T17:57:36.015Z,66.44
2018-07-24T18:00:05.652Z,66.16
2018-07-24T18:02:35.200Z,66.34
2018-07-24T18:05:04.699Z,66.26
2018-07-24T18:07:34.312Z,66.38
2018-07-24T18:10:03.794Z,66.35
2018-07-24T18:12:33.524Z,66.54
2018-07-24T18:15:02.973Z,66.66
2018-07-24T18:17:39.134Z,67.01
2018-07-24T18:20:08.692Z,66.98
2018-07-24T18:22:39.481Z,67.02
2018-07-24T18:25:09.151Z,67.24
2018-07-24T18:27:38.699Z,67.35
2018-07-24T18:30:10.433Z,67.52
2018-07-24T18:32:39.901Z,67.62
2018-07-24T18:35:09.570Z,67.81
2018-07-24T18:37:39.614Z,68.05
2018-07-24T18:40:10.035Z,68.42
2018-07-24T18:42:42.028Z,68.19
2018-07-24T18:45:12.464Z,68.50
2018-07-24T18:47:41.885Z,68.76
2018-07-24T18:50:12.091Z,68.58
2018-07-24T18:52:41.602Z,68.53
2018-07-24T18:55:13.881Z,68.44
2018-07-24T18:57:43.491Z,68.67
2018-07-24T19:00:13.414Z,68.26
2018-07-24T19:02:43.926Z,68.62
2018-07-24T19:05:14.756Z,68.80
2018-07-24T19:07:44.252Z,68.89
2018-07-24T19:10:14.274Z,68.59
2018-07-24T19:12:44.116Z,68.36
2018-07-24T19:15:13.700Z,68.79
2018-07-24T19:17:44.001Z,69.10
2018-07-24T19:20:16.086Z,72.52
2018-07-24T19:22:46.030Z,74.40
2018-07-24T19:25:15.945Z,75.73
2018-07-24T19:27:45.687Z,76.20
2018-07-24T19:30:15.415Z,76.90
2018-07-24T19:32:44.990Z,76.62
2018-07-24T19:35:14.476Z,77.23
2018-07-24T19:37:44.494Z,77.07
2018-07-24T19:40:13.967Z,77.41
2018-07-24T19:42:43.513Z,76.54
2018-07-24T19:45:14.332Z,76.23
2018-07-24T19:47:47.569Z,75.56
2018-07-24T19:50:17.350Z,76.20
2018-07-24T19:52:46.854Z,75.59
2018-07-24T19:55:16.660Z,76.24
2018-07-24T19:57:46.157Z,76.59
2018-07-24T20:00:15.583Z,75.98
2018-07-24T20:02:45.093Z,76.48
2018-07-24T20:05:14.756Z,76.15
2018-07-24T20:07:44.251Z,76.40
2018-07-24T20:10:13.559Z,76.04
2018-07-24T20:12:43.275Z,76.28
2018-07-24T20:15:17.992Z,76.17
2018-07-24T20:17:47.870Z,75.94
2018-07-24T20:20:18.198Z,76.26
2018-07-24T20:22:53.623Z,76.07
2018-07-24T20:25:25.883Z,75.85
2018-07-24T20:27:55.636Z,76.60
2018-07-24T20:30:26.388Z,76.24
2018-07-24T20:32:59.353Z,76.25
2018-07-24T20:35:29.055Z,76.15
2018-07-24T20:37:59.302Z,76.36
2018-07-24T20:40:29.371Z,76.20
2018-07-24T21:00:21.977Z,76.72
2018-07-24T21:02:51.787Z,76.64
2018-07-24T21:22:43.990Z,76.57
2018-07-24T21:25:16.645Z,76.51
2018-07-24T21:45:08.408Z,76.77
2018-07-24T21:47:38.032Z,77.30
2018-07-24T21:50:07.805Z,77.42
2018-07-24T21:52:37.923Z,77.30
2018-07-24T21:55:07.685Z,77.66
2018-07-24T21:57:37.080Z,77.43
2018-07-24T22:00:12.025Z,77.64
2018-07-24T22:02:41.548Z,77.62
2018-07-24T22:05:11.545Z,77.65
2018-07-24T22:07:41.483Z,78.04
2018-07-24T22:27:35.077Z,78.36
2018-07-24T22:30:06.948Z,78.64
2018-07-24T22:32:36.530Z,78.77
2018-07-24T22:35:10.853Z,78.66
2018-07-24T22:37:42.591Z,78.80
2018-07-24T22:57:38.100Z,78.59
2018-07-24T23:17:30.026Z,79.50
2018-07-24T23:20:01.013Z,79.20
2018-07-24T23:22:30.473Z,78.94
2018-07-24T23:25:01.400Z,78.88
2018-07-24T23:27:34.933Z,78.45
2018-07-24T23:30:04.909Z,78.20
2018-07-24T23:32:45.899Z,78.52
2018-07-24T23:52:40.681Z,79.35
2018-07-24T23:55:10.310Z,78.70
2018-07-24T23:57:42.089Z,78.75
